sensor_id;sensor_type;location;lat;lon;timestamp;pressure;altitude;pressure_sealevel;temperature;humidity
41140;BME280;26881;48.784;9.192;2023-02-03T00:05:17;99858.16;;;7.66;73.54
41140;BME280;26881;48.784;9.192;2023-02-03T00:10:39;99849.97;;;7.47;74.23
41140;BME280;26881;48.784;9.192;2023-02-03T00:16:01;99845.47;;;7.53;74.62
41140;BME280;26881;48.784;9.192;2023-02-03T00:21:23;99844.59;;;7.53;74.14
41140;BME280;26881;48.784;9.192;2023-02-03T00:26:45;99836.06;;;7.48;74.43
41140;BME280;26881;48.784;9.192;2023-02-03T00:32:06;99861.03;;;7.55;74.01
41140;BME280;26881;48.784;9.192;2023-02-03T00:37:28;99848.69;;;7.63;73.83
41140;BME280;26881;48.784;9.192;2023-02-03T00:42:50;99857.72;;;7.50;74.23
41140;BME280;26881;48.784;9.192;2023-02-03T00:48:12;99874.25;;;7.47;73.64
41140;BME280;26881;48.784;9.192;2023-02-03T00:53:34;99870.56;;;7.56;73.79
41140;BME280;26881;48.784;9.192;2023-02-03T00:58:56;99870.34;;;7.65;73.21
41140;BME280;26881;48.784;9.192;2023-02-03T01:04:18;99869.03;;;7.49;73.18
41140;BME280;26881;48.784;9.192;2023-02-03T01:09:40;99864.66;;;7.49;74.08
41140;BME280;26881;48.784;9.192;2023-02-03T01:15:02;99863.75;;;7.50;74.04
41140;BME280;26881;48.784;9.192;2023-02-03T01:20:23;99833.28;;;7.55;73.57
41140;BME280;26881;48.784;9.192;2023-02-03T01:25:46;99823.22;;;7.42;74.10
41140;BME280;26881;48.784;9.192;2023-02-03T01:36:32;99843.28;;;7.36;74.26
41140;BME280;26881;48.784;9.192;2023-02-03T01:41:55;99833.91;;;7.31;74.23
41140;BME280;26881;48.784;9.192;2023-02-03T01:52:47;99836.53;;;7.29;74.73
41140;BME280;26881;48.784;9.192;2023-02-03T02:03:54;99833.78;;;7.35;74.68
41140;BME280;26881;48.784;9.192;2023-02-03T02:09:16;99818.88;;;7.42;74.12
41140;BME280;26881;48.784;9.192;2023-02-03T02:14:39;99813.88;;;7.34;74.77
41140;BME280;26881;48.784;9.192;2023-02-03T02:26:10;99748.13;;;7.28;75.10
41140;BME280;26881;48.784;9.192;2023-02-03T02:32:17;99774.84;;;7.34;75.97
41140;BME280;26881;48.784;9.192;2023-02-03T02:37:58;99767.81;;;7.36;75.65
41140;BME280;26881;48.784;9.192;2023-02-03T02:43:27;99748.56;;;7.44;75.15
41140;BME280;26881;48.784;9.192;2023-02-03T02:48:57;99723.66;;;7.33;75.72
41140;BME280;26881;48.784;9.192;2023-02-03T02:54:22;99764.53;;;7.30;76.56
41140;BME280;26881;48.784;9.192;2023-02-03T02:59:46;99761.63;;;7.41;75.90
41140;BME280;26881;48.784;9.192;2023-02-03T03:05:09;99773.13;;;7.33;76.33
41140;BME280;26881;48.784;9.192;2023-02-03T03:10:33;99762.81;;;7.29;76.67
41140;BME280;26881;48.784;9.192;2023-02-03T03:15:57;99756.63;;;7.34;76.46
41140;BME280;26881;48.784;9.192;2023-02-03T03:21:26;99759.00;;;7.42;76.22
41140;BME280;26881;48.784;9.192;2023-02-03T03:26:57;99745.09;;;7.43;76.21
41140;BME280;26881;48.784;9.192;2023-02-03T03:32:21;99739.88;;;7.43;76.60
41140;BME280;26881;48.784;9.192;2023-02-03T03:37:50;99764.44;;;7.34;76.63
41140;BME280;26881;48.784;9.192;2023-02-03T03:43:22;99771.94;;;7.45;75.71
41140;BME280;26881;48.784;9.192;2023-02-03T03:48:54;99781.34;;;7.51;75.87
41140;BME280;26881;48.784;9.192;2023-02-03T03:54:19;99800.44;;;7.50;75.35
41140;BME280;26881;48.784;9.192;2023-02-03T03:59:46;99813.31;;;7.56;75.12
41140;BME280;26881;48.784;9.192;2023-02-03T04:05:09;99824.84;;;7.46;75.83
41140;BME280;26881;48.784;9.192;2023-02-03T04:10:40;99823.84;;;7.51;76.89
41140;BME280;26881;48.784;9.192;2023-02-03T04:16:02;99811.19;;;7.37;77.44
41140;BME280;26881;48.784;9.192;2023-02-03T04:21:24;99819.09;;;7.33;77.21
41140;BME280;26881;48.784;9.192;2023-02-03T04:26:46;99823.53;;;7.29;78.66
41140;BME280;26881;48.784;9.192;2023-02-03T04:32:08;99818.16;;;7.35;80.26
41140;BME280;26881;48.784;9.192;2023-02-03T04:37:30;99796.88;;;7.20;82.18
41140;BME280;26881;48.784;9.192;2023-02-03T04:42:52;99795.38;;;7.11;84.05
41140;BME280;26881;48.784;9.192;2023-02-03T04:48:14;99805.00;;;7.07;84.07
41140;BME280;26881;48.784;9.192;2023-02-03T04:53:35;99804.97;;;7.09;84.70
41140;BME280;26881;48.784;9.192;2023-02-03T04:58:57;99803.38;;;7.03;85.02
41140;BME280;26881;48.784;9.192;2023-02-03T05:04:19;99767.63;;;7.11;84.33
41140;BME280;26881;48.784;9.192;2023-02-03T05:09:41;99774.81;;;7.02;85.95
41140;BME280;26881;48.784;9.192;2023-02-03T05:15:03;99777.56;;;6.95;85.33
41140;BME280;26881;48.784;9.192;2023-02-03T05:20:25;99804.34;;;6.99;86.15
41140;BME280;26881;48.784;9.192;2023-02-03T05:25:47;99809.59;;;6.97;85.87
41140;BME280;26881;48.784;9.192;2023-02-03T05:31:09;99791.56;;;6.90;87.51
41140;BME280;26881;48.784;9.192;2023-02-03T05:36:31;99804.50;;;6.93;87.38
41140;BME280;26881;48.784;9.192;2023-02-03T05:41:52;99816.72;;;6.89;88.42
41140;BME280;26881;48.784;9.192;2023-02-03T05:47:17;99804.34;;;6.99;87.60
41140;BME280;26881;48.784;9.192;2023-02-03T05:52:39;99812.19;;;6.97;87.45
41140;BME280;26881;48.784;9.192;2023-02-03T05:58:01;99812.09;;;7.02;86.96
41140;BME280;26881;48.784;9.192;2023-02-03T06:03:23;99787.66;;;7.08;86.71
41140;BME280;26881;48.784;9.192;2023-02-03T06:08:44;99784.94;;;7.12;85.50
41140;BME280;26881;48.784;9.192;2023-02-03T06:14:06;99769.94;;;7.22;84.82
41140;BME280;26881;48.784;9.192;2023-02-03T06:19:28;99758.69;;;7.22;84.48
41140;BME280;26881;48.784;9.192;2023-02-03T06:24:50;99765.72;;;7.18;84.23
41140;BME280;26881;48.784;9.192;2023-02-03T06:30:12;99786.72;;;7.10;84.73
41140;BME280;26881;48.784;9.192;2023-02-03T06:35:34;99774.31;;;7.20;84.46
41140;BME280;26881;48.784;9.192;2023-02-03T06:40:55;99776.88;;;7.23;83.50
41140;BME280;26881;48.784;9.192;2023-02-03T06:46:17;99768.34;;;7.18;83.64
41140;BME280;26881;48.784;9.192;2023-02-03T06:51:39;99765.63;;;7.21;84.22
41140;BME280;26881;48.784;9.192;2023-02-03T06:57:01;99748.38;;;7.17;84.49
41140;BME280;26881;48.784;9.192;2023-02-03T07:02:22;99745.94;;;7.11;85.24
41140;BME280;26881;48.784;9.192;2023-02-03T07:07:44;99761.44;;;7.15;85.18
41140;BME280;26881;48.784;9.192;2023-02-03T07:13:06;99754.78;;;7.05;85.87
41140;BME280;26881;48.784;9.192;2023-02-03T07:18:28;99753.09;;;7.03;86.13
41140;BME280;26881;48.784;9.192;2023-02-03T07:24:07;99728.13;;;6.97;86.55
41140;BME280;26881;48.784;9.192;2023-02-03T07:29:29;99740.25;;;7.29;84.85
41140;BME280;26881;48.784;9.192;2023-02-03T07:34:51;99749.13;;;7.22;84.18
41140;BME280;26881;48.784;9.192;2023-02-03T07:40:13;99760.66;;;7.12;84.85
41140;BME280;26881;48.784;9.192;2023-02-03T07:45:35;99771.22;;;7.06;85.53
41140;BME280;26881;48.784;9.192;2023-02-03T07:50:57;99784.09;;;7.12;85.57
41140;BME280;26881;48.784;9.192;2023-02-03T07:56:19;99798.28;;;6.99;86.18
41140;BME280;26881;48.784;9.192;2023-02-03T08:01:41;99795.63;;;7.02;85.57
41140;BME280;26881;48.784;9.192;2023-02-03T08:07:03;99827.56;;;7.07;85.69
41140;BME280;26881;48.784;9.192;2023-02-03T08:12:24;99823.09;;;7.13;86.38
41140;BME280;26881;48.784;9.192;2023-02-03T08:17:49;99825.78;;;7.09;85.49
41140;BME280;26881;48.784;9.192;2023-02-03T08:23:11;99831.00;;;7.09;86.29
41140;BME280;26881;48.784;9.192;2023-02-03T08:28:33;99832.72;;;7.08;87.00
41140;BME280;26881;48.784;9.192;2023-02-03T08:33:55;99834.56;;;7.05;87.47
41140;BME280;26881;48.784;9.192;2023-02-03T08:39:16;99826.72;;;7.06;88.38
41140;BME280;26881;48.784;9.192;2023-02-03T08:44:38;99826.66;;;7.09;88.72
41140;BME280;26881;48.784;9.192;2023-02-03T08:50:00;99847.84;;;7.28;87.77
41140;BME280;26881;48.784;9.192;2023-02-03T08:55:22;99835.88;;;7.21;88.54
41140;BME280;26881;48.784;9.192;2023-02-03T09:00:43;99831.41;;;7.26;87.22
41140;BME280;26881;48.784;9.192;2023-02-03T09:06:06;99837.66;;;7.21;87.94
41140;BME280;26881;48.784;9.192;2023-02-03T09:11:29;99824.47;;;7.27;87.93
41140;BME280;26881;48.784;9.192;2023-02-03T09:16:50;99826.00;;;7.34;88.59
41140;BME280;26881;48.784;9.192;2023-02-03T09:22:12;99793.69;;;7.43;88.32
41140;BME280;26881;48.784;9.192;2023-02-03T09:27:35;99799.94;;;7.35;88.26
41140;BME280;26881;48.784;9.192;2023-02-03T09:32:56;99816.91;;;7.50;87.51
41140;BME280;26881;48.784;9.192;2023-02-03T09:38:19;99803.72;;;7.56;88.22
41140;BME280;26881;48.784;9.192;2023-02-03T09:44:05;99826.47;;;7.50;87.47
41140;BME280;26881;48.784;9.192;2023-02-03T09:49:38;99833.78;;;7.68;87.56
41140;BME280;26881;48.784;9.192;2023-02-03T10:01:09;99807.88;;;7.64;87.62
41140;BME280;26881;48.784;9.192;2023-02-03T10:06:42;99798.25;;;7.67;88.32
41140;BME280;26881;48.784;9.192;2023-02-03T10:18:25;99804.91;;;7.77;86.22
41140;BME280;26881;48.784;9.192;2023-02-03T10:23:50;99808.31;;;7.79;86.73
41140;BME280;26881;48.784;9.192;2023-02-03T10:29:30;99809.44;;;8.02;87.11
41140;BME280;26881;48.784;9.192;2023-02-03T10:34:55;99832.38;;;8.19;86.24
41140;BME280;26881;48.784;9.192;2023-02-03T10:40:25;99821.09;;;8.18;84.85
41140;BME280;26881;48.784;9.192;2023-02-03T10:45:48;99802.91;;;8.17;85.56
41140;BME280;26881;48.784;9.192;2023-02-03T10:51:16;99782.03;;;8.18;86.56
41140;BME280;26881;48.784;9.192;2023-02-03T10:56:39;99763.72;;;8.20;85.03
41140;BME280;26881;48.784;9.192;2023-02-03T11:02:20;99770.16;;;8.36;85.43
41140;BME280;26881;48.784;9.192;2023-02-03T11:07:43;99771.78;;;8.42;84.46
41140;BME280;26881;48.784;9.192;2023-02-03T11:18:44;99775.44;;;8.35;82.86
41140;BME280;26881;48.784;9.192;2023-02-03T11:24:17;99768.56;;;8.32;83.53
41140;BME280;26881;48.784;9.192;2023-02-03T11:29:45;99770.31;;;8.32;83.29
41140;BME280;26881;48.784;9.192;2023-02-03T11:35:17;99737.09;;;8.40;82.94
41140;BME280;26881;48.784;9.192;2023-02-03T11:40:44;99731.81;;;8.41;83.07
41140;BME280;26881;48.784;9.192;2023-02-03T11:46:06;99747.16;;;8.51;81.38
41140;BME280;26881;48.784;9.192;2023-02-03T11:57:00;99722.81;;;8.52;80.34
41140;BME280;26881;48.784;9.192;2023-02-03T12:02:36;99720.00;;;8.58;77.77
41140;BME280;26881;48.784;9.192;2023-02-03T12:14:02;99700.13;;;8.54;78.84
41140;BME280;26881;48.784;9.192;2023-02-03T12:20:00;99713.72;;;8.63;78.78
41140;BME280;26881;48.784;9.192;2023-02-03T12:25:34;99712.75;;;8.66;77.36
41140;BME280;26881;48.784;9.192;2023-02-03T12:31:07;99709.81;;;8.77;74.84
41140;BME280;26881;48.784;9.192;2023-02-03T12:36:39;99706.25;;;8.79;74.30
41140;BME280;26881;48.784;9.192;2023-02-03T12:42:11;99707.22;;;8.77;74.08
41140;BME280;26881;48.784;9.192;2023-02-03T12:47:46;99674.88;;;8.81;73.11
41140;BME280;26881;48.784;9.192;2023-02-03T12:53:34;99671.56;;;8.76;72.11
41140;BME280;26881;48.784;9.192;2023-02-03T12:59:03;99626.66;;;8.68;72.97
41140;BME280;26881;48.784;9.192;2023-02-03T13:04:43;99638.09;;;8.63;73.19
41140;BME280;26881;48.784;9.192;2023-02-03T13:10:18;99640.50;;;8.70;72.18
41140;BME280;26881;48.784;9.192;2023-02-03T13:15:43;99626.66;;;8.68;73.38
41140;BME280;26881;48.784;9.192;2023-02-03T13:21:10;99625.75;;;8.69;72.62
41140;BME280;26881;48.784;9.192;2023-02-03T13:26:49;99636.97;;;8.71;72.04
41140;BME280;26881;48.784;9.192;2023-02-03T13:43:55;99610.09;;;8.69;71.25
41140;BME280;26881;48.784;9.192;2023-02-03T13:49:26;99601.22;;;8.74;71.74
41140;BME280;26881;48.784;9.192;2023-02-03T13:54:49;99604.59;;;8.76;71.37
41140;BME280;26881;48.784;9.192;2023-02-03T14:06:10;99604.84;;;8.70;71.83
41140;BME280;26881;48.784;9.192;2023-02-03T14:11:52;99601.13;;;8.77;72.12
41140;BME280;26881;48.784;9.192;2023-02-03T14:23:05;99617.28;;;8.62;71.64
41140;BME280;26881;48.784;9.192;2023-02-03T14:28:38;99623.25;;;8.65;72.37
41140;BME280;26881;48.784;9.192;2023-02-03T14:34:09;99596.25;;;8.67;72.21
41140;BME280;26881;48.784;9.192;2023-02-03T14:45:51;99615.91;;;8.77;72.19
41140;BME280;26881;48.784;9.192;2023-02-03T15:02:27;99607.50;;;8.69;72.75
41140;BME280;26881;48.784;9.192;2023-02-03T15:07:51;99616.88;;;8.74;72.91
41140;BME280;26881;48.784;9.192;2023-02-03T15:13:24;99610.22;;;8.65;73.95
41140;BME280;26881;48.784;9.192;2023-02-03T15:18:54;99597.88;;;8.71;73.31
41140;BME280;26881;48.784;9.192;2023-02-03T15:24:18;99575.31;;;8.70;73.93
41140;BME280;26881;48.784;9.192;2023-02-03T15:29:42;99599.56;;;8.72;74.74
41140;BME280;26881;48.784;9.192;2023-02-03T15:35:06;99616.22;;;8.68;74.81
41140;BME280;26881;48.784;9.192;2023-02-03T15:40:47;99645.88;;;8.65;74.86
41140;BME280;26881;48.784;9.192;2023-02-03T15:46:25;99645.72;;;8.70;75.06
41140;BME280;26881;48.784;9.192;2023-02-03T15:52:01;99658.81;;;8.68;75.74
41140;BME280;26881;48.784;9.192;2023-02-03T15:57:27;99665.66;;;8.71;75.39
41140;BME280;26881;48.784;9.192;2023-02-03T16:02:50;99676.38;;;8.63;75.07
41140;BME280;26881;48.784;9.192;2023-02-03T16:13:46;99657.19;;;8.64;75.95
41140;BME280;26881;48.784;9.192;2023-02-03T16:19:15;99677.03;;;8.70;76.64
41140;BME280;26881;48.784;9.192;2023-02-03T16:24:39;99660.66;;;8.64;77.66
41140;BME280;26881;48.784;9.192;2023-02-03T16:35:43;99659.88;;;8.62;78.97
41140;BME280;26881;48.784;9.192;2023-02-03T16:41:23;99657.66;;;8.50;79.95
41140;BME280;26881;48.784;9.192;2023-02-03T16:47:20;99670.53;;;8.55;79.51
41140;BME280;26881;48.784;9.192;2023-02-03T16:53:01;99685.53;;;8.48;79.83
41140;BME280;26881;48.784;9.192;2023-02-03T16:58:23;99680.31;;;8.48;80.21
41140;BME280;26881;48.784;9.192;2023-02-03T17:03:45;99685.59;;;8.47;80.81
41140;BME280;26881;48.784;9.192;2023-02-03T17:09:07;99693.41;;;8.47;81.35
41140;BME280;26881;48.784;9.192;2023-02-03T17:14:29;99701.16;;;8.48;81.10
41140;BME280;26881;48.784;9.192;2023-02-03T17:19:51;99700.78;;;8.60;80.38
41140;BME280;26881;48.784;9.192;2023-02-03T17:25:13;99708.63;;;8.60;80.26
41140;BME280;26881;48.784;9.192;2023-02-03T17:30:35;99688.09;;;8.50;81.05
41140;BME280;26881;48.784;9.192;2023-02-03T17:36:04;99690.44;;;8.57;79.95
41140;BME280;26881;48.784;9.192;2023-02-03T17:41:26;99695.63;;;8.59;79.59
41140;BME280;26881;48.784;9.192;2023-02-03T17:47:08;99698.06;;;8.63;79.39
41140;BME280;26881;48.784;9.192;2023-02-03T17:52:47;99698.91;;;8.64;78.82
41140;BME280;26881;48.784;9.192;2023-02-03T17:58:23;99704.09;;;8.65;78.88
41140;BME280;26881;48.784;9.192;2023-02-03T18:03:46;99712.72;;;8.68;78.86
41140;BME280;26881;48.784;9.192;2023-02-03T18:09:09;99706.63;;;8.67;78.34
41140;BME280;26881;48.784;9.192;2023-02-03T18:14:34;99699.69;;;8.68;78.73
41140;BME280;26881;48.784;9.192;2023-02-03T18:19:56;99709.25;;;8.67;78.51
41140;BME280;26881;48.784;9.192;2023-02-03T18:25:19;99723.97;;;8.70;78.80
41140;BME280;26881;48.784;9.192;2023-02-03T18:30:41;99721.94;;;8.78;78.32
41140;BME280;26881;48.784;9.192;2023-02-03T18:36:04;99716.75;;;8.76;78.02
41140;BME280;26881;48.784;9.192;2023-02-03T18:41:26;99712.44;;;8.77;78.74
41140;BME280;26881;48.784;9.192;2023-02-03T18:46:51;99701.19;;;8.75;79.13
41140;BME280;26881;48.784;9.192;2023-02-03T18:52:12;99703.78;;;8.75;79.92
41140;BME280;26881;48.784;9.192;2023-02-03T18:57:34;99716.91;;;8.72;80.91
41140;BME280;26881;48.784;9.192;2023-02-03T19:02:56;99726.50;;;8.71;81.39
41140;BME280;26881;48.784;9.192;2023-02-03T19:08:18;99710.94;;;8.70;81.48
41140;BME280;26881;48.784;9.192;2023-02-03T19:13:41;99706.59;;;8.69;81.48
41140;BME280;26881;48.784;9.192;2023-02-03T19:19:03;99710.84;;;8.71;81.45
41140;BME280;26881;48.784;9.192;2023-02-03T19:24:24;99694.34;;;8.71;81.87
41140;BME280;26881;48.784;9.192;2023-02-03T19:29:47;99706.63;;;8.67;81.67
41140;BME280;26881;48.784;9.192;2023-02-03T19:35:09;99709.06;;;8.73;82.23
41140;BME280;26881;48.784;9.192;2023-02-03T19:40:31;99716.22;;;8.67;82.80
41140;BME280;26881;48.784;9.192;2023-02-03T19:45:53;99734.47;;;8.67;82.78
41140;BME280;26881;48.784;9.192;2023-02-03T19:51:15;99735.59;;;8.59;82.87
41140;BME280;26881;48.784;9.192;2023-02-03T19:56:38;99744.09;;;8.64;83.16
41140;BME280;26881;48.784;9.192;2023-02-03T20:02:00;99732.91;;;8.62;82.82
41140;BME280;26881;48.784;9.192;2023-02-03T20:07:34;99737.00;;;8.70;82.83
41140;BME280;26881;48.784;9.192;2023-02-03T20:12:56;99746.41;;;8.74;82.65
41140;BME280;26881;48.784;9.192;2023-02-03T20:18:17;99738.75;;;8.69;82.59
41140;BME280;26881;48.784;9.192;2023-02-03T20:23:39;99744.06;;;8.66;82.86
41140;BME280;26881;48.784;9.192;2023-02-03T20:29:01;99744.84;;;8.70;82.96
41140;BME280;26881;48.784;9.192;2023-02-03T20:34:23;99742.06;;;8.74;82.56
41140;BME280;26881;48.784;9.192;2023-02-03T20:39:48;99753.25;;;8.78;82.19
41140;BME280;26881;48.784;9.192;2023-02-03T20:45:12;99749.81;;;8.76;82.64
41140;BME280;26881;48.784;9.192;2023-02-03T20:50:35;99751.56;;;8.77;82.18
41140;BME280;26881;48.784;9.192;2023-02-03T20:56:06;99752.44;;;8.76;81.94
41140;BME280;26881;48.784;9.192;2023-02-03T21:01:32;99750.75;;;8.75;81.74
41140;BME280;26881;48.784;9.192;2023-02-03T21:06:53;99751.56;;;8.77;80.95
41140;BME280;26881;48.784;9.192;2023-02-03T21:12:16;99762.72;;;8.80;80.39
41140;BME280;26881;48.784;9.192;2023-02-03T21:17:38;99769.66;;;8.81;79.91
41140;BME280;26881;48.784;9.192;2023-02-03T21:23:00;99766.09;;;8.84;79.82
41140;BME280;26881;48.784;9.192;2023-02-03T21:28:23;99761.75;;;8.83;79.58
41140;BME280;26881;48.784;9.192;2023-02-03T21:33:48;99760.09;;;8.80;79.72
41140;BME280;26881;48.784;9.192;2023-02-03T21:39:32;99771.19;;;8.87;79.07
41140;BME280;26881;48.784;9.192;2023-02-03T21:44:54;99770.31;;;8.88;79.54
41140;BME280;26881;48.784;9.192;2023-02-03T21:50:36;99765.00;;;8.91;79.53
41140;BME280;26881;48.784;9.192;2023-02-03T21:56:19;99765.03;;;8.90;79.77
41140;BME280;26881;48.784;9.192;2023-02-03T22:01:41;99763.06;;;8.96;80.93
41140;BME280;26881;48.784;9.192;2023-02-03T22:07:13;99770.09;;;8.94;81.43
41140;BME280;26881;48.784;9.192;2023-02-03T22:12:35;99770.19;;;8.91;81.75
41140;BME280;26881;48.784;9.192;2023-02-03T22:17:57;99771.00;;;8.93;82.89
41140;BME280;26881;48.784;9.192;2023-02-03T22:23:19;99782.41;;;8.91;83.24
41140;BME280;26881;48.784;9.192;2023-02-03T22:28:42;99785.91;;;8.90;83.90
41140;BME280;26881;48.784;9.192;2023-02-03T22:34:04;99780.69;;;8.90;83.70
41140;BME280;26881;48.784;9.192;2023-02-03T22:39:26;99775.34;;;8.93;84.01
41140;BME280;26881;48.784;9.192;2023-02-03T22:44:48;99791.25;;;8.85;84.07
41140;BME280;26881;48.784;9.192;2023-02-03T22:50:11;99800.75;;;8.88;84.20
41140;BME280;26881;48.784;9.192;2023-02-03T22:55:35;99808.38;;;8.94;83.83
41140;BME280;26881;48.784;9.192;2023-02-03T23:00:58;99810.84;;;8.98;82.53
41140;BME280;26881;48.784;9.192;2023-02-03T23:06:20;99810.72;;;9.01;81.80
41140;BME280;26881;48.784;9.192;2023-02-03T23:11:41;99819.56;;;8.97;82.46
41140;BME280;26881;48.784;9.192;2023-02-03T23:17:03;99812.34;;;9.05;82.47
41140;BME280;26881;48.784;9.192;2023-02-03T23:22:25;99811.84;;;8.94;83.27
41140;BME280;26881;48.784;9.192;2023-02-03T23:27:47;99810.88;;;8.97;83.63
41140;BME280;26881;48.784;9.192;2023-02-03T23:33:09;99816.22;;;8.94;84.00
41140;BME280;26881;48.784;9.192;2023-02-03T23:38:31;99823.28;;;8.90;84.79
41140;BME280;26881;48.784;9.192;2023-02-03T23:43:53;99821.63;;;8.88;84.45
41140;BME280;26881;48.784;9.192;2023-02-03T23:49:15;99822.31;;;8.93;84.11
41140;BME280;26881;48.784;9.192;2023-02-03T23:54:37;99844.34;;;8.84;85.12
41140;BME280;26881;48.784;9.192;2023-02-03T23:59:59;99830.34;;;8.86;85.58
